Terminal Aerodrome Forecast
Issued by NWS Binghamton, NY

Home | Current Version | Previous Version | Text Only | Print | Product List | Glossary On
Versions: 1 2 3 4 5 6 7 8 9 10 11 12 13 14 15 16 17 18 19 20 21 22 23
000
FTUS41 KBGM 042323
TAFBGM
TAF
KBGM 042323Z 0500/0524 15005KT P6SM SCT035
     FM050400 14004KT P6SM BKN025
     FM050700 14004KT 3SM BR OVC006
     FM051400 16005KT P6SM BKN025
     FM051600 18006KT P6SM SCT040=

USA.gov is the U.S. government's official web portal to all federal, state and local government web resources and services.